Time;durP1;ratioP1;P1;durP2;ratioP2;P2;SDS_P1;SDS_P2;PMS_P1;PMS_P2;Temp;Humidity;BMP_temperature;BMP_pressure;BME280_temperature;BME280_humidity;BME280_pressure;Samples;Min_cycle;Max_cycle;Signal;HPM_P1;HPM_P2
2023/07/04 00:01:01;;;;;;;14.60;3.87;;;;;;;17.71;82.07;101004.22;5160589;28;20556;-72
2023/07/04 00:03:34;;;;;;;13.70;3.93;;;;;;;17.68;81.46;101004.47;5167898;28;20141;-73
2023/07/04 00:06:08;;;;;;;19.65;4.28;;;;;;;17.73;81.79;100995.13;5185667;28;20286;-73
2023/07/04 00:08:39;;;;;;;16.07;5.20;;;;;;;17.67;81.78;100995.69;5200979;28;20478;-78
2023/07/04 00:11:11;;;;;;;17.80;4.07;;;;;;;17.64;82.78;101002.13;5169743;28;20031;-77
2023/07/04 00:13:43;;;;;;;15.03;4.97;;;;;;;17.61;82.55;100993.59;5186322;28;20051;-78
2023/07/04 00:16:15;;;;;;;10.27;3.50;;;;;;;17.66;82.79;101005.44;5207185;28;20092;-73
2023/07/04 00:18:46;;;;;;;16.30;4.03;;;;;;;17.59;82.68;101001.69;5206457;28;20037;-80
2023/07/04 00:21:19;;;;;;;16.10;4.03;;;;;;;17.59;82.87;100993.75;5193785;28;20031;-79
2023/07/04 00:23:52;;;;;;;17.80;4.60;;;;;;;17.52;83.78;100996.06;5231678;28;20021;-76
2023/07/04 00:26:25;;;;;;;17.35;5.13;;;;;;;17.42;84.35;100984.59;5169252;28;20031;-79
2023/07/04 00:28:57;;;;;;;18.67;5.33;;;;;;;17.38;83.96;100980.56;5207509;28;20033;-74
2023/07/04 00:31:29;;;;;;;20.20;5.30;;;;;;;17.36;84.37;100986.00;5209849;28;20034;-77
2023/07/04 00:34:00;;;;;;;20.07;4.87;;;;;;;17.49;84.26;100998.97;5175592;28;20047;-79
2023/07/04 00:36:34;;;;;;;16.73;4.30;;;;;;;17.55;83.91;101005.56;5172912;28;20023;-75
2023/07/04 00:39:06;;;;;;;15.75;4.72;;;;;;;17.49;84.46;100996.34;5170151;28;20049;-77
2023/07/04 00:41:37;;;;;;;15.50;3.90;;;;;;;17.41;85.25;100998.81;5169152;28;20023;-77
2023/07/04 00:44:22;;;;;;;17.13;4.77;;;;;;;17.50;85.00;100997.19;5172507;28;20023;-76
2023/07/04 00:47:15;;;;;;;20.00;4.50;;;;;;;17.52;85.11;100995.25;5168473;28;20064;-76
2023/07/04 00:49:49;;;;;;;14.13;4.03;;;;;;;17.43;86.03;101002.19;5200899;28;20036;-76
2023/07/04 00:52:32;;;;;;;17.73;5.07;;;;;;;17.46;85.50;100999.25;5170442;28;20031;-76
2023/07/04 00:55:09;;;;;;;20.97;5.20;;;;;;;17.36;87.45;100996.56;5160103;28;20484;-77
2023/07/04 00:57:40;;;;;;;17.73;5.40;;;;;;;17.31;87.37;100988.19;5176226;28;20031;-78
2023/07/04 01:00:18;;;;;;;17.47;4.80;;;;;;;17.32;87.80;101002.25;5186697;28;20039;-79
2023/07/04 01:02:59;;;;;;;16.07;4.13;;;;;;;17.38;87.70;101005.22;5169383;28;20042;-78
2023/07/04 01:05:49;;;;;;;23.67;6.00;;;;;;;17.44;87.16;100998.53;5203354;28;20033;-77
2023/07/04 01:08:32;;;;;;;17.37;5.47;;;;;;;17.34;87.97;100995.03;5197566;28;20027;-76
2023/07/04 01:11:12;;;;;;;18.63;3.80;;;;;;;17.35;88.06;100999.34;5181878;28;20084;-77
2023/07/04 01:13:44;;;;;;;23.73;4.83;;;;;;;17.26;89.40;100998.34;5175148;28;20409;-78
2023/07/04 01:16:18;;;;;;;24.60;6.17;;;;;;;17.30;89.08;101002.38;5175882;28;20447;-80
2023/07/04 01:18:56;;;;;;;18.73;4.97;;;;;;;17.20;90.09;100996.22;5173464;28;20023;-79
2023/07/04 01:21:28;;;;;;;20.50;5.03;;;;;;;17.11;90.40;100998.69;5171107;28;20459;-74
2023/07/04 01:24:18;;;;;;;15.70;4.33;;;;;;;17.37;88.68;101007.97;5171960;28;20129;-76
2023/07/04 01:26:49;;;;;;;27.77;5.07;;;;;;;17.14;90.60;101001.06;5190979;28;20393;-80
2023/07/04 01:29:21;;;;;;;17.90;6.13;;;;;;;17.09;91.66;101011.16;5171641;28;20039;-72
2023/07/04 01:31:52;;;;;;;20.53;6.00;;;;;;;17.05;91.81;101007.94;5175359;28;20450;-79
2023/07/04 01:34:25;;;;;;;16.83;4.20;;;;;;;17.05;91.76;101007.13;5173217;28;20038;-78
2023/07/04 01:36:56;;;;;;;24.87;5.20;;;;;;;17.05;92.01;101005.28;5172665;28;20027;-72
2023/07/04 01:39:28;;;;;;;14.73;4.30;;;;;;;17.03;92.34;100998.47;5172217;28;20384;-79
2023/07/04 01:42:04;;;;;;;22.10;6.33;;;;;;;16.98;93.00;100998.03;5172419;28;20066;-73
2023/07/04 01:44:36;;;;;;;19.50;5.13;;;;;;;16.97;93.54;101001.63;5173576;28;20106;-77
2023/07/04 01:47:07;;;;;;;18.53;5.20;;;;;;;16.98;93.99;101004.16;5172675;28;20180;-76
2023/07/04 01:49:38;;;;;;;20.00;5.50;;;;;;;17.02;93.98;101004.72;5184201;28;20031;-79
2023/07/04 01:52:11;;;;;;;20.47;5.47;;;;;;;16.95;94.48;101001.75;5172564;28;20465;-75
2023/07/04 01:54:43;;;;;;;17.93;5.30;;;;;;;17.01;93.84;101003.06;5187930;28;20047;-79
2023/07/04 01:57:14;;;;;;;15.43;4.40;;;;;;;17.02;94.39;101010.00;5190486;28;20192;-79
2023/07/04 01:59:45;;;;;;;24.70;5.80;;;;;;;17.03;94.63;101006.41;5181288;28;20062;-78
2023/07/04 02:02:17;;;;;;;21.40;5.87;;;;;;;17.01;95.01;101013.63;5177700;28;20038;-77
2023/07/04 02:04:48;;;;;;;17.43;5.07;;;;;;;17.01;95.33;101008.34;5207365;28;20379;-80
2023/07/04 02:07:20;;;;;;;16.67;5.43;;;;;;;16.98;95.33;100998.88;5192126;28;20023;-80
2023/07/04 02:09:51;;;;;;;27.23;5.53;;;;;;;17.01;96.11;100997.75;5211526;28;20375;-80
2023/07/04 02:12:22;;;;;;;19.13;4.47;;;;;;;17.07;95.33;101002.53;5171430;28;20015;-79
2023/07/04 02:14:54;;;;;;;17.90;6.10;;;;;;;17.01;95.69;100995.97;5186771;28;20047;-75
2023/07/04 02:17:25;;;;;;;19.30;5.60;;;;;;;17.02;96.38;101002.06;5172672;28;20054;-79
2023/07/04 02:19:56;;;;;;;20.13;6.07;;;;;;;16.99;96.53;100999.69;5172072;28;20038;-72
2023/07/04 02:22:27;;;;;;;17.70;5.47;;;;;;;17.00;96.28;100990.81;5184601;28;20027;-78
2023/07/04 02:24:59;;;;;;;16.87;5.33;;;;;;;16.96;96.48;100979.66;5204853;28;20038;-72
2023/07/04 02:27:30;;;;;;;19.80;4.93;;;;;;;16.98;96.38;100992.75;5203182;28;20052;-79
2023/07/04 02:30:03;;;;;;;21.50;5.37;;;;;;;17.05;95.85;100993.91;5171882;28;20019;-77
2023/07/04 02:32:34;;;;;;;20.80;4.90;;;;;;;16.97;96.67;101007.75;5171813;28;20022;-75
2023/07/04 02:35:06;;;;;;;17.50;5.60;;;;;;;17.00;99.41;101004.03;5171521;28;20669;-79
2023/07/04 02:37:37;;;;;;;26.17;6.00;;;;;;;17.01;100.00;100997.75;5172360;28;20618;-80
2023/07/04 02:40:09;;;;;;;14.20;5.77;;;;;;;17.04;100.00;101003.63;5172132;28;20027;-79
2023/07/04 02:42:40;;;;;;;20.63;5.40;;;;;;;16.95;100.00;101003.59;5169599;28;20034;-80
2023/07/04 02:45:12;;;;;;;19.97;6.07;;;;;;;17.00;100.00;101009.31;5186856;28;20037;-80
2023/07/04 02:47:43;;;;;;;22.10;5.47;;;;;;;16.79;100.00;101005.69;5171767;28;20034;-78
2023/07/04 02:50:14;;;;;;;21.47;6.30;;;;;;;16.93;100.00;101007.19;5171445;28;20037;-72
2023/07/04 02:52:45;;;;;;;22.27;5.80;;;;;;;16.89;100.00;101011.06;5171484;28;20039;-78
2023/07/04 02:55:18;;;;;;;15.50;5.30;;;;;;;16.84;100.00;100997.41;5172098;28;20041;-80
2023/07/04 02:57:49;;;;;;;23.07;5.87;;;;;;;16.73;100.00;100986.88;5167767;28;20057;-79
2023/07/04 03:00:21;;;;;;;16.73;4.57;;;;;;;16.69;100.00;101005.66;5183879;28;20027;-76
2023/07/04 03:02:52;;;;;;;15.27;4.37;;;;;;;16.78;100.00;100996.09;5179850;28;20690;-80
2023/07/04 03:05:25;;;;;;;12.17;3.53;;;;;;;16.68;100.00;101003.97;5193804;28;20113;-73
2023/07/04 03:07:57;;;;;;;23.40;6.37;;;;;;;16.53;100.00;101010.53;5187919;28;20485;-79
2023/07/04 03:10:28;;;;;;;26.90;7.20;;;;;;;16.65;100.00;101003.41;5192400;28;20152;-78
2023/07/04 03:13:00;;;;;;;13.00;4.53;;;;;;;16.61;100.00;100997.53;5191944;28;20035;-77
2023/07/04 03:15:31;;;;;;;16.47;5.50;;;;;;;16.51;100.00;101004.53;5171109;28;20022;-77
2023/07/04 03:18:02;;;;;;;14.00;4.83;;;;;;;16.61;100.00;101010.75;5171448;28;20026;-78
2023/07/04 03:20:34;;;;;;;16.67;5.37;;;;;;;16.54;100.00;101012.22;5158339;28;20474;-78
2023/07/04 03:23:05;;;;;;;21.60;5.50;;;;;;;16.52;100.00;101015.00;5170466;28;20023;-78
2023/07/04 03:25:36;;;;;;;24.73;6.07;;;;;;;16.51;100.00;101001.91;5169452;28;20023;-78
2023/07/04 03:28:08;;;;;;;23.40;6.40;;;;;;;16.50;100.00;101005.50;5170212;28;20059;-77
2023/07/04 03:30:40;;;;;;;17.50;5.53;;;;;;;16.37;100.00;100992.47;5171113;28;20022;-79
2023/07/04 03:33:11;;;;;;;19.63;5.50;;;;;;;16.38;100.00;101002.91;5170698;28;20054;-78
2023/07/04 03:35:42;;;;;;;24.53;6.80;;;;;;;16.40;100.00;101013.34;5183142;28;20341;-77
2023/07/04 03:38:13;;;;;;;23.80;5.53;;;;;;;16.30;100.00;101006.16;5169796;28;20034;-77
2023/07/04 03:40:45;;;;;;;19.40;6.10;;;;;;;16.28;100.00;101002.84;5195472;28;20051;-78
2023/07/04 03:43:16;;;;;;;16.43;6.93;;;;;;;16.32;100.00;101013.97;5201289;28;20034;-79
2023/07/04 03:45:47;;;;;;;17.33;4.90;;;;;;;16.28;100.00;101017.84;5171572;28;20377;-71
2023/07/04 03:48:20;;;;;;;22.40;6.70;;;;;;;16.24;100.00;101011.13;5171479;28;20027;-76
2023/07/04 03:50:52;;;;;;;24.97;6.03;;;;;;;16.17;100.00;101018.72;5170043;28;20400;-78
2023/07/04 03:53:23;;;;;;;16.20;4.23;;;;;;;16.21;100.00;101026.25;5220775;28;20024;-74
2023/07/04 03:55:54;;;;;;;22.30;6.00;;;;;;;16.17;100.00;101018.72;5170413;28;20457;-79
2023/07/04 03:58:25;;;;;;;21.60;5.60;;;;;;;16.11;100.00;101012.09;5169163;28;20034;-78
2023/07/04 04:00:57;;;;;;;19.17;5.83;;;;;;;16.17;100.00;101019.56;5165572;28;20071;-78
2023/07/04 04:03:28;;;;;;;25.23;6.27;;;;;;;16.14;100.00;101014.53;5160145;28;20044;-76
2023/07/04 04:05:59;;;;;;;19.97;5.10;;;;;;;16.07;100.00;101022.13;5171940;28;20105;-79
2023/07/04 04:08:31;;;;;;;26.70;7.33;;;;;;;16.08;100.00;101033.50;5192253;28;20035;-79
2023/07/04 04:11:03;;;;;;;28.77;6.53;;;;;;;16.03;100.00;101025.94;5193379;28;20493;-77
2023/07/04 04:13:34;;;;;;;26.27;6.33;;;;;;;16.11;100.00;101033.25;5177129;28;20492;-79
2023/07/04 04:16:05;;;;;;;24.10;6.57;;;;;;;15.96;100.00;101007.09;5192280;28;20531;-78
2023/07/04 04:18:37;;;;;;;21.87;5.67;;;;;;;16.01;100.00;101027.88;5215881;28;20119;-80
2023/07/04 04:21:09;;;;;;;20.57;6.33;;;;;;;15.94;100.00;101021.38;5227093;28;20480;-76
2023/07/04 04:23:40;;;;;;;30.93;6.20;;;;;;;16.07;100.00;101026.56;5200625;28;20483;-77
2023/07/04 04:26:14;;;;;;;24.63;6.63;;;;;;;15.99;100.00;101029.78;5193099;28;20046;-79
2023/07/04 04:28:46;;;;;;;25.55;6.43;;;;;;;16.08;100.00;101034.34;5216087;28;20043;-78
2023/07/04 04:31:18;;;;;;;28.27;8.53;;;;;;;16.02;100.00;101031.38;5206190;28;20683;-75
2023/07/04 04:33:50;;;;;;;20.13;5.63;;;;;;;15.90;100.00;101019.94;5200351;28;20028;-78
2023/07/04 04:36:21;;;;;;;19.77;6.27;;;;;;;15.93;100.00;101035.53;5206687;28;20121;-72
2023/07/04 04:38:52;;;;;;;19.83;6.10;;;;;;;15.83;100.00;101032.81;5230748;28;20027;-79
2023/07/04 04:41:24;;;;;;;20.50;6.40;;;;;;;15.94;100.00;101048.63;5233017;28;20100;-80
2023/07/04 04:43:57;;;;;;;25.33;6.37;;;;;;;15.96;100.00;101057.28;5190601;28;20013;-80
2023/07/04 04:46:28;;;;;;;26.03;7.00;;;;;;;15.86;100.00;101045.75;5199224;28;20130;-80
2023/07/04 04:49:03;;;;;;;20.00;6.13;;;;;;;16.01;100.00;101056.09;5195227;28;20106;-79
2023/07/04 04:51:34;;;;;;;20.33;6.33;;;;;;;15.94;100.00;101046.00;5203715;28;20025;-79
2023/07/04 04:54:06;;;;;;;20.43;5.90;;;;;;;16.00;100.00;101047.34;5208311;28;20034;-79
2023/07/04 04:56:37;;;;;;;20.73;7.03;;;;;;;16.04;100.00;101045.28;5196595;28;20023;-81
2023/07/04 04:59:08;;;;;;;30.13;6.70;;;;;;;16.11;100.00;101045.63;5206851;28;20033;-78
2023/07/04 05:01:40;;;;;;;22.57;5.17;;;;;;;16.18;100.00;101050.28;5190609;28;20056;-76
2023/07/04 05:04:11;;;;;;;20.50;6.40;;;;;;;16.10;100.00;101047.44;5191475;28;20050;-79
2023/07/04 05:06:42;;;;;;;22.10;5.63;;;;;;;16.13;100.00;101047.19;5173035;28;20023;-78
2023/07/04 05:09:14;;;;;;;20.37;6.10;;;;;;;16.19;100.00;101061.69;5181786;28;20050;-79
2023/07/04 05:11:45;;;;;;;22.23;6.50;;;;;;;16.28;100.00;101054.84;5170935;28;21091;-78
2023/07/04 05:14:16;;;;;;;26.47;7.43;;;;;;;16.30;100.00;101059.03;5171680;28;20055;-78
2023/07/04 05:16:48;;;;;;;20.27;6.43;;;;;;;16.25;100.00;101055.09;5208368;28;20027;-77
2023/07/04 05:19:19;;;;;;;19.03;6.13;;;;;;;16.27;100.00;101064.56;5173068;28;20050;-78
2023/07/04 05:21:51;;;;;;;27.67;7.40;;;;;;;16.20;100.00;101052.81;5172545;28;20027;-71
2023/07/04 05:24:22;;;;;;;21.30;6.17;;;;;;;16.28;100.00;101060.97;5172395;28;20106;-78
2023/07/04 05:26:53;;;;;;;27.10;7.03;;;;;;;16.23;100.00;101054.38;5172235;28;20034;-78
2023/07/04 05:29:25;;;;;;;26.50;6.30;;;;;;;16.35;100.00;101071.88;5172743;28;20026;-77
2023/07/04 05:31:56;;;;;;;21.47;5.93;;;;;;;16.40;100.00;101069.72;5172618;28;20031;-73
2023/07/04 05:34:28;;;;;;;21.77;5.57;;;;;;;16.22;100.00;101066.72;5172610;28;20027;-77
2023/07/04 05:37:02;;;;;;;21.03;5.97;;;;;;;16.29;100.00;101075.84;5173469;28;20530;-79
2023/07/04 05:39:33;;;;;;;23.75;6.32;;;;;;;16.31;100.00;101070.44;5172646;28;20042;-78
2023/07/04 05:42:04;;;;;;;23.63;6.07;;;;;;;16.35;100.00;101066.59;5172102;28;20035;-76
2023/07/04 05:44:36;;;;;;;26.70;6.10;;;;;;;16.38;100.00;101071.63;5174842;28;20023;-74
2023/07/04 05:47:07;;;;;;;28.67;6.50;;;;;;;16.40;100.00;101077.63;5210766;28;20104;-76
2023/07/04 05:49:39;;;;;;;17.87;6.03;;;;;;;16.45;100.00;101066.69;5190771;28;20027;-78
2023/07/04 05:52:10;;;;;;;23.93;5.70;;;;;;;16.50;100.00;101068.94;5181037;28;20496;-73
2023/07/04 05:54:41;;;;;;;21.30;5.37;;;;;;;16.57;100.00;101070.13;5176048;28;20034;-76
2023/07/04 05:57:13;;;;;;;19.40;5.60;;;;;;;16.59;100.00;101062.91;5191847;28;20122;-76
2023/07/04 05:59:44;;;;;;;20.80;5.57;;;;;;;16.56;100.00;101071.09;5201354;28;20424;-75
2023/07/04 06:02:16;;;;;;;24.90;5.50;;;;;;;16.75;100.00;101072.22;5178367;28;20088;-71
2023/07/04 06:04:47;;;;;;;20.90;5.30;;;;;;;16.75;100.00;101061.63;5184599;28;20033;-71
2023/07/04 06:07:19;;;;;;;18.90;5.43;;;;;;;16.98;100.00;101072.09;5169470;28;20065;-74
2023/07/04 06:09:51;;;;;;;23.10;6.10;;;;;;;16.92;100.00;101069.00;5192254;28;20649;-72
2023/07/04 06:12:22;;;;;;;25.87;6.03;;;;;;;16.94;100.00;101076.81;5170347;28;20029;-70
2023/07/04 06:14:53;;;;;;;23.20;6.27;;;;;;;16.92;100.00;101076.94;5173409;28;20043;-71
2023/07/04 06:17:24;;;;;;;28.00;6.43;;;;;;;16.94;100.00;101076.81;5186394;28;20028;-73
2023/07/04 06:19:56;;;;;;;22.97;6.67;;;;;;;16.97;100.00;101081.00;5217240;28;20071;-72
2023/07/04 06:22:27;;;;;;;23.57;6.20;;;;;;;16.97;100.00;101076.53;5197612;28;20110;-72
2023/07/04 06:24:59;;;;;;;23.80;5.90;;;;;;;17.14;100.00;101091.03;5198045;28;20035;-74
2023/07/04 06:27:30;;;;;;;23.57;6.47;;;;;;;17.17;100.00;101090.78;5171806;28;20030;-75
2023/07/04 06:30:02;;;;;;;27.60;7.57;;;;;;;17.16;100.00;101086.44;5184815;28;20051;-72
2023/07/04 06:32:33;;;;;;;18.90;6.13;;;;;;;17.22;100.00;101095.69;5195147;28;20029;-73
2023/07/04 06:35:05;;;;;;;19.10;4.70;;;;;;;17.26;100.00;101086.50;5179861;28;20073;-73
2023/07/04 06:37:36;;;;;;;25.57;5.50;;;;;;;17.31;100.00;101094.06;5214422;28;20020;-73
2023/07/04 06:40:09;;;;;;;21.00;5.73;;;;;;;17.39;100.00;101083.66;5190323;28;20026;-73
2023/07/04 06:42:41;;;;;;;17.33;5.23;;;;;;;17.52;100.00;101095.84;5175492;28;20446;-74
2023/07/04 06:45:12;;;;;;;19.73;6.07;;;;;;;17.59;100.00;101104.97;5203945;28;20023;-73
2023/07/04 06:47:43;;;;;;;18.13;4.67;;;;;;;17.60;100.00;101103.13;5224623;28;20032;-72
2023/07/04 06:50:15;;;;;;;19.40;4.50;;;;;;;17.64;100.00;101105.41;5175829;28;20058;-73
2023/07/04 06:52:49;;;;;;;21.57;4.77;;;;;;;17.81;100.00;101108.38;5232939;28;20043;-74
2023/07/04 06:55:21;;;;;;;21.67;5.47;;;;;;;17.90;100.00;101115.53;5229067;28;20076;-72
2023/07/04 06:57:52;;;;;;;21.70;5.53;;;;;;;18.02;100.00;101115.44;5217573;28;20467;-73
2023/07/04 07:00:23;;;;;;;16.70;5.00;;;;;;;18.23;100.00;101117.19;5217722;28;20075;-74
2023/07/04 07:02:55;;;;;;;16.43;4.03;;;;;;;18.15;100.00;101109.94;5244589;28;20488;-73
2023/07/04 07:05:26;;;;;;;20.17;3.97;;;;;;;18.23;100.00;101109.22;5162241;28;20930;-73
2023/07/04 07:07:57;;;;;;;15.37;4.37;;;;;;;18.29;96.86;101132.56;5170307;28;20023;-73
2023/07/04 07:10:31;;;;;;;12.93;3.70;;;;;;;18.24;91.35;101132.09;5189540;28;20034;-74
2023/07/04 07:13:05;;;;;;;19.95;4.60;;;;;;;18.60;92.40;101129.81;5168973;28;20068;-73
2023/07/04 07:15:37;;;;;;;;;;;;;;;19.33;86.71;101117.09;5172995;28;20030;-73
2023/07/04 07:18:08;;;;;;;16.27;3.57;;;;;;;19.12;84.43;101105.78;5170024;28;19918;-72
2023/07/04 07:20:39;;;;;;;12.87;4.27;;;;;;;19.36;77.71;101120.44;5171509;28;20118;-72
2023/07/04 07:23:11;;;;;;;18.43;4.33;;;;;;;19.44;77.91;101117.91;5171235;28;20031;-72
2023/07/04 07:25:42;;;;;;;15.77;3.93;;;;;;;19.96;77.02;101113.94;5172574;28;20076;-71
2023/07/04 07:28:14;;;;;;;15.07;4.83;;;;;;;20.51;78.04;101133.50;5169423;28;20411;-72
2023/07/04 07:30:45;;;;;;;16.20;4.23;;;;;;;20.76;70.88;101107.13;5170129;28;20039;-71
2023/07/04 07:33:16;;;;;;;14.67;4.07;;;;;;;20.74;67.03;101126.88;5171091;28;20037;-72
2023/07/04 07:35:49;;;;;;;12.13;3.80;;;;;;;20.66;69.37;101151.59;5170212;28;20035;-72
2023/07/04 07:38:21;;;;;;;15.23;4.30;;;;;;;20.53;71.46;101139.50;5170653;28;20027;-72
2023/07/04 07:40:53;;;;;;;13.30;3.47;;;;;;;20.91;71.59;101130.50;5168785;28;20084;-72
2023/07/04 07:43:25;;;;;;;13.73;3.72;;;;;;;21.19;66.65;101133.09;5184962;28;20097;-74
2023/07/04 07:45:57;;;;;;;12.80;4.13;;;;;;;21.67;63.32;101132.72;5170757;28;20031;-72
2023/07/04 07:48:28;;;;;;;13.37;3.80;;;;;;;21.73;62.62;101137.41;5169671;28;20038;-71
2023/07/04 07:50:59;;;;;;;13.53;4.33;;;;;;;21.85;60.59;101147.84;5169442;28;20484;-71
2023/07/04 07:53:30;;;;;;;16.70;4.10;;;;;;;22.23;56.84;101134.13;5186752;28;20035;-71
2023/07/04 07:56:07;;;;;;;18.20;4.05;;;;;;;22.79;56.56;101159.44;5243786;28;20027;-72
2023/07/04 07:58:39;;;;;;;7.45;2.90;;;;;;;23.01;51.56;101146.44;5170188;28;20125;-72
2023/07/04 08:01:15;;;;;;;9.35;3.20;;;;;;;23.42;47.54;101154.41;5199600;28;20114;-70
2023/07/04 08:03:47;;;;;;;16.95;5.00;;;;;;;23.79;49.90;101148.66;5165720;28;20712;-71
2023/07/04 08:06:25;;;;;;;16.02;3.72;;;;;;;24.38;48.63;101157.28;5163855;28;20039;-71
2023/07/04 08:08:58;;;;;;;10.88;3.35;;;;;;;24.56;45.06;101164.19;5161521;28;20366;-71
2023/07/04 08:11:30;;;;;;;16.58;3.95;;;;;;;24.42;44.85;101166.59;5159789;28;20026;-72
2023/07/04 08:14:01;;;;;;;12.80;4.45;;;;;;;24.73;44.21;101157.69;5161371;28;20043;-72
2023/07/04 08:16:59;;;;;;;16.60;4.53;;;;;;;25.26;47.39;101161.47;5162227;28;20118;-71
2023/07/04 08:19:30;;;;;;;15.07;3.60;;;;;;;24.53;41.73;101165.38;5162535;28;20066;-71
2023/07/04 08:22:02;;;;;;;14.60;3.78;;;;;;;24.38;41.53;101168.78;5164118;28;20129;-71
2023/07/04 08:24:33;;;;;;;10.15;3.55;;;;;;;24.21;45.44;101167.25;5164068;28;20401;-71
2023/07/04 08:27:05;;;;;;;16.17;4.25;;;;;;;24.29;41.52;101154.66;5168634;28;20035;-72
2023/07/04 08:29:36;;;;;;;15.00;3.58;;;;;;;24.67;40.74;101166.44;5165541;28;20039;-71
2023/07/04 08:32:10;;;;;;;24.45;4.47;;;;;;;25.12;39.73;101168.44;5166628;28;20034;-71
2023/07/04 08:34:41;;;;;;;10.85;3.30;;;;;;;25.45;40.23;101167.34;5166786;28;20031;-71
2023/07/04 08:37:13;;;;;;;10.20;3.53;;;;;;;25.98;38.90;101151.16;5167030;28;20381;-72
2023/07/04 08:39:46;;;;;;;8.48;2.60;;;;;;;26.04;36.57;101149.53;5166332;28;20038;-72
2023/07/04 08:42:21;;;;;;;8.43;2.72;;;;;;;25.56;36.66;101137.38;5168256;28;20598;-71
2023/07/04 08:44:52;;;;;;;9.75;2.72;;;;;;;25.59;36.12;101153.06;5165763;28;20062;-71
2023/07/04 08:47:27;;;;;;;10.35;3.50;;;;;;;25.38;35.65;101146.59;5166066;28;20051;-71
2023/07/04 08:50:03;;;;;;;8.95;3.90;;;;;;;25.73;36.44;101153.28;5166224;28;20092;-71
2023/07/04 08:52:48;;;;;;;8.18;2.85;;;;;;;26.19;38.08;101156.72;5165759;28;20037;-72
2023/07/04 08:55:22;;;;;;;12.73;3.13;;;;;;;26.36;36.13;101156.56;5166355;28;20377;-72
2023/07/04 08:57:58;;;;;;;13.10;3.88;;;;;;;26.57;34.50;101161.94;5164546;28;20089;-72
2023/07/04 09:00:35;;;;;;;11.45;3.47;;;;;;;26.39;33.72;101161.53;5195643;28;20100;-71
2023/07/04 09:03:12;;;;;;;9.20;2.70;;;;;;;26.93;33.35;101162.84;5166199;28;20027;-71
2023/07/04 09:05:50;;;;;;;8.23;2.25;;;;;;;27.45;33.26;101175.25;5165620;28;20123;-72
2023/07/04 09:08:31;;;;;;;12.93;3.13;;;;;;;27.16;31.99;101177.16;5165399;28;20409;-71
2023/07/04 09:11:07;;;;;;;13.20;3.55;;;;;;;27.61;32.39;101167.91;5165297;28;20125;-71
2023/07/04 09:13:53;;;;;;;8.55;2.83;;;;;;;27.46;32.41;101189.53;5166937;28;21092;-72
2023/07/04 09:16:36;;;;;;;11.02;3.13;;;;;;;27.76;33.97;101181.25;5166003;28;20080;-71
2023/07/04 09:19:10;;;;;;;10.43;3.20;;;;;;;28.00;33.14;101185.28;5166052;28;20074;-72
2023/07/04 09:21:42;;;;;;;10.23;3.53;;;;;;;27.95;31.67;101190.44;5164172;28;20567;-72
2023/07/04 09:24:15;;;;;;;9.35;2.83;;;;;;;28.45;31.82;101183.19;5164729;28;20035;-71
2023/07/04 09:26:49;;;;;;;14.27;3.13;;;;;;;28.44;31.42;101185.03;5165456;28;20397;-72
2023/07/04 09:29:24;;;;;;;10.38;3.40;;;;;;;28.98;30.55;101181.56;5166211;28;20540;-72
2023/07/04 09:32:00;;;;;;;12.82;2.80;;;;;;;29.17;30.57;101184.50;5165074;28;20027;-72
2023/07/04 09:34:41;;;;;;;13.73;3.50;;;;;;;29.25;31.38;101195.09;5164539;28;20039;-72
2023/07/04 09:37:15;;;;;;;12.55;3.58;;;;;;;29.19;30.87;101196.75;5163873;28;20072;-71
2023/07/04 09:39:55;;;;;;;12.70;3.60;;;;;;;29.02;30.70;101192.81;5164824;28;20110;-71
2023/07/04 09:42:47;;;;;;;12.35;3.55;;;;;;;29.35;29.71;101208.97;5164951;28;20092;-72
2023/07/04 09:45:23;;;;;;;9.50;2.72;;;;;;;28.95;30.13;101200.84;5164234;28;20050;-71
2023/07/04 09:47:54;;;;;;;12.07;2.83;;;;;;;29.25;29.86;101202.34;5165545;28;20027;-71
2023/07/04 09:50:30;;;;;;;13.73;2.78;;;;;;;28.65;29.40;101203.94;5164665;28;20389;-72
2023/07/04 09:53:10;;;;;;;12.73;3.03;;;;;;;28.56;31.10;101195.22;5165186;28;20062;-71
2023/07/04 09:55:55;;;;;;;18.35;3.20;;;;;;;28.77;30.29;101206.84;5170579;28;20038;-71
2023/07/04 09:58:29;;;;;;;10.15;2.65;;;;;;;28.75;29.96;101197.13;5164126;28;20110;-72
2023/07/04 10:01:08;;;;;;;;;;;;;;;30.33;29.50;101202.06;5164735;28;20038;-72
2023/07/04 10:03:41;;;;;;;7.80;2.50;;;;;;;29.17;28.19;101201.50;5163742;28;19922;-72
2023/07/04 10:06:29;;;;;;;10.43;2.72;;;;;;;29.99;28.76;101212.16;5163899;28;20026;-71
2023/07/04 10:09:06;;;;;;;8.68;2.88;;;;;;;29.34;28.29;101195.69;5173883;28;20034;-71
2023/07/04 10:11:39;;;;;;;8.68;3.10;;;;;;;29.76;27.83;101198.09;5168571;28;20087;-72
2023/07/04 10:14:13;;;;;;;12.18;2.55;;;;;;;29.82;27.81;101199.97;5183298;28;20096;-72
2023/07/04 10:16:50;;;;;;;9.40;3.45;;;;;;;29.21;28.77;101202.75;5177058;28;20026;-71
2023/07/04 10:19:23;;;;;;;7.85;2.60;;;;;;;29.47;29.27;101205.63;5187410;28;20148;-72
2023/07/04 10:21:54;;;;;;;8.63;2.90;;;;;;;29.99;28.75;101195.97;5171246;28;20442;-73
2023/07/04 10:24:27;;;;;;;7.85;2.75;;;;;;;29.44;28.83;101200.66;5172887;28;20034;-71
2023/07/04 10:27:02;;;;;;;6.95;2.75;;;;;;;29.17;29.03;101197.97;5170649;28;20540;-72
2023/07/04 10:29:46;;;;;;;11.13;2.60;;;;;;;29.42;29.30;101198.16;5172937;28;20023;-72
2023/07/04 10:32:17;;;;;;;10.68;2.50;;;;;;;28.94;28.45;101196.53;5172515;28;20074;-74
2023/07/04 10:34:50;;;;;;;9.02;2.88;;;;;;;29.22;29.46;101188.22;5189849;28;20728;-73
2023/07/04 10:37:57;;;;;;;11.98;3.25;;;;;;;29.78;29.34;101176.28;5185256;28;20440;-73
2023/07/04 10:40:29;;;;;;;11.18;3.88;;;;;;;29.76;28.48;101197.28;5190548;28;20173;-72
2023/07/04 10:43:10;;;;;;;9.60;2.75;;;;;;;29.98;27.79;101205.09;5220024;28;20111;-73
2023/07/04 10:45:43;;;;;;;6.07;2.45;;;;;;;29.53;26.81;101204.78;5219675;28;20099;-71
2023/07/04 10:48:16;;;;;;;10.93;2.30;;;;;;;30.16;27.38;101201.69;5211665;28;20099;-74
2023/07/04 10:50:59;;;;;;;9.88;3.22;;;;;;;30.19;27.41;101198.56;5175967;28;20617;-74
2023/07/04 10:53:31;;;;;;;9.73;2.70;;;;;;;30.21;27.67;101206.44;5218495;28;20033;-73
2023/07/04 10:56:16;;;;;;;8.38;2.90;;;;;;;30.64;27.29;101203.09;5239323;28;20021;-73
2023/07/04 10:58:52;;;;;;;11.40;2.92;;;;;;;30.22;26.84;101205.41;5245599;28;20029;-73
2023/07/04 11:01:31;;;;;;;10.85;3.03;;;;;;;30.72;26.58;101206.59;5256560;28;20024;-72
2023/07/04 11:04:18;;;;;;;9.13;3.75;;;;;;;30.42;26.61;101211.53;5170321;28;20531;-72
2023/07/04 11:07:06;;;;;;;11.82;2.65;;;;;;;29.88;27.78;101201.00;5170484;28;20023;-72
2023/07/04 11:09:40;;;;;;;10.50;2.83;;;;;;;29.75;27.32;101190.22;5194339;28;20490;-72
2023/07/04 11:12:17;;;;;;;9.30;2.45;;;;;;;29.64;27.52;101200.63;5170361;28;20035;-74
2023/07/04 11:14:57;;;;;;;14.52;2.88;;;;;;;29.47;27.82;101201.06;5170597;28;20126;-73
2023/07/04 11:17:31;;;;;;;9.73;2.85;;;;;;;29.39;28.58;101204.00;5169824;28;20031;-77
2023/07/04 11:20:13;;;;;;;7.55;2.58;;;;;;;29.46;28.68;101194.00;5170596;28;20053;-76
2023/07/04 11:22:54;;;;;;;10.20;2.55;;;;;;;29.71;27.61;101211.41;5170283;28;20642;-77
2023/07/04 11:25:31;;;;;;;6.32;2.83;;;;;;;28.70;29.19;101210.38;5223759;28;20034;-74
2023/07/04 11:28:14;;;;;;;14.75;2.70;;;;;;;29.45;28.24;101210.38;5216164;28;20026;-75
2023/07/04 11:30:49;;;;;;;7.55;2.92;;;;;;;28.74;29.50;101206.25;5246084;28;20027;-77
2023/07/04 11:33:38;;;;;;;15.20;3.83;;;;;;;29.43;28.40;101196.31;5180657;28;20027;-76
2023/07/04 11:36:24;;;;;;;8.20;3.13;;;;;;;29.19;28.19;101187.81;5189918;28;20432;-76
2023/07/04 11:39:03;;;;;;;8.93;2.80;;;;;;;28.83;29.05;101189.88;5224767;28;20637;-76
2023/07/04 11:41:41;;;;;;;11.45;3.17;;;;;;;28.89;29.67;101194.41;5177152;28;20109;-73
2023/07/04 11:44:21;;;;;;;12.27;3.17;;;;;;;28.82;28.76;101199.81;5171677;28;20027;-75